KLIC

Details ICAO KLIC
Name LIMON MUNI
Region United States
Timezone America/Denver (UTC-6.0)
Plans Departing 0
Arriving 4
Stats Elevation 5,374 ft / 1,638 m (AMSL)
Location 39.274788° -103.665874°
Runways 1
Magnetic Variation 7.430° E
Sunrise 2018-05-22 11:37:01 UTC / 2018-05-22 05:37:01 Local
Sunset 2018-05-23 02:08:33 UTC / 2018-05-22 20:08:33 Local
Advertisement - Login to hide

Runways

ID Width Length Bearing (true) Bearing (mag) Surface Threshold Offset Overrun Length
16 60 ft / 18 m 4,706 ft / 1,435 m 169.64° 162.21° Concrete 0 ft / 0 m 0 ft / 0 m
34 60 ft / 18 m 4,706 ft / 1,435 m 349.64° 342.21° Concrete 0 ft / 0 m 0 ft / 0 m

Map

Weather


0- 5 10 15 20 25 30 35+ Temperature / ° C

Clouds and Precipitation
Forecast for 2018-05-22 12:00 UTC. Updated an hour ago

Ground ~20,000 ft ~40,000 ft Winds

METAR

KLIC 221155Z AUTO 00000KT 10SM CLR 07/05 A3000 RMK AO2 SLP103 T00720050 10139 20072 55003

TAF

Not found

Frequencies

Recorded 121.12 MHz ASOS
Unicom 122.90 MHz CTAF
Warning: Do not use this data for real-world aviation or navigation. No guarantee of current accuracy is given.